Time;durP1;ratioP1;P1;durP2;ratioP2;P2;SDS_P1;SDS_P2;PMS_P1;PMS_P2;Temp;Humidity;BMP_temperature;BMP_pressure;BME280_temperature;BME280_humidity;BME280_pressure;Samples;Min_cycle;Max_cycle;Signal;HPM_P1;HPM_P2
2023/07/05 00:00:08;;;;;;;8.90;4.50;;;18.90;33.20;;;;;;5033602;28;20458;-65
2023/07/05 00:02:34;;;;;;;14.80;3.90;;;18.80;33.60;;;;;;5028590;28;20477;-65
2023/07/05 00:05:01;;;;;;;10.90;4.33;;;18.70;33.90;;;;;;5031588;28;20474;-65
2023/07/05 00:07:28;;;;;;;10.63;5.00;;;18.60;33.50;;;;;;5028606;28;20451;-65
2023/07/05 00:09:55;;;;;;;8.57;4.50;;;18.60;34.20;;;;;;5032089;28;20509;-65
2023/07/05 00:12:23;;;;;;;12.20;4.50;;;18.50;34.00;;;;;;5030025;28;20466;-65
2023/07/05 00:14:49;;;;;;;8.37;4.83;;;18.50;33.80;;;;;;5029253;28;20487;-65
2023/07/05 00:17:16;;;;;;;8.27;4.87;;;18.40;34.10;;;;;;5030147;28;20470;-65
2023/07/05 00:19:43;;;;;;;8.67;5.20;;;18.40;33.80;;;;;;5029832;28;20458;-65
2023/07/05 00:22:09;;;;;;;8.13;4.10;;;18.30;33.80;;;;;;5029620;28;20465;-65
2023/07/05 00:24:36;;;;;;;10.97;4.20;;;18.30;34.00;;;;;;5027575;28;20482;-65
2023/07/05 00:27:03;;;;;;;12.50;5.00;;;18.20;34.30;;;;;;5030937;28;20838;-65
2023/07/05 00:29:31;;;;;;;11.07;4.53;;;18.20;34.70;;;;;;5024538;28;20554;-66
2023/07/05 00:31:58;;;;;;;10.77;4.53;;;18.20;34.80;;;;;;5028188;28;20478;-65
2023/07/05 00:34:25;;;;;;;10.93;4.67;;;18.10;34.90;;;;;;5029972;28;20483;-65
2023/07/05 00:36:51;;;;;;;12.20;4.50;;;18.00;34.70;;;;;;5027875;28;20472;-65
2023/07/05 00:39:18;;;;;;;13.27;5.30;;;18.00;34.30;;;;;;5029704;28;20944;-65
2023/07/05 00:41:45;;;;;;;11.00;4.80;;;18.00;34.80;;;;;;5025614;28;20910;-65
2023/07/05 00:44:14;;;;;;;11.40;4.23;;;18.00;35.10;;;;;;5032208;28;20486;-65
2023/07/05 00:46:48;;;;;;;10.30;5.00;;;18.00;35.30;;;;;;5033546;28;20462;-65
2023/07/05 00:49:17;;;;;;;11.50;5.40;;;17.90;35.40;;;;;;5036401;28;20494;-65
2023/07/05 00:51:51;;;;;;;10.33;4.93;;;17.80;35.40;;;;;;5031828;28;20467;-65
2023/07/05 00:54:22;;;;;;;10.03;4.50;;;17.80;35.20;;;;;;5030957;28;20487;-65
2023/07/05 00:56:53;;;;;;;11.87;5.37;;;17.70;35.90;;;;;;5024229;28;20464;-65
2023/07/05 00:59:22;;;;;;;9.60;4.50;;;17.70;36.30;;;;;;5026910;28;20462;-65
2023/07/05 01:01:50;;;;;;;11.57;5.03;;;17.80;35.80;;;;;;5027571;28;20478;-65
2023/07/05 01:04:19;;;;;;;10.17;5.20;;;17.70;36.00;;;;;;5030001;28;20490;-65
2023/07/05 01:06:47;;;;;;;18.27;6.00;;;17.70;36.40;;;;;;5030332;28;20994;-65
2023/07/05 01:09:13;;;;;;;10.27;4.27;;;17.60;36.50;;;;;;5027867;28;20501;-65
2023/07/05 01:11:51;;;;;;;16.20;5.00;;;17.50;36.40;;;;;;5030121;28;20459;-65
2023/07/05 01:14:24;;;;;;;9.30;4.20;;;17.40;36.20;;;;;;5030007;28;20486;-65
2023/07/05 01:17:02;;;;;;;8.00;4.50;;;17.30;36.40;;;;;;5028268;28;20469;-65
2023/07/05 01:19:55;;;;;;;10.77;5.10;;;17.30;36.80;;;;;;5019796;28;20459;-65
2023/07/05 01:22:39;;;;;;;12.00;5.27;;;17.20;37.10;;;;;;5021947;28;20991;-65
2023/07/05 01:25:22;;;;;;;8.37;5.07;;;17.30;36.70;;;;;;5024159;28;20474;-65
2023/07/05 01:28:03;;;;;;;13.83;5.73;;;17.20;37.40;;;;;;5026797;28;20463;-65
2023/07/05 01:31:06;;;;;;;10.20;5.70;;;17.20;37.10;;;;;;5019504;28;20467;-65
2023/07/05 01:33:42;;;;;;;10.77;6.63;;;17.20;37.30;;;;;;5023986;28;20474;-65
2023/07/05 01:36:12;;;;;;;11.67;5.60;;;17.20;37.10;;;;;;5031047;28;20463;-65
2023/07/05 01:38:38;;;;;;;12.57;6.03;;;17.20;37.10;;;;;;5023634;28;20469;-64
2023/07/05 01:41:08;;;;;;;9.80;5.00;;;17.30;36.90;;;;;;5034028;28;20523;-65
2023/07/05 01:43:38;;;;;;;9.47;5.23;;;17.30;37.00;;;;;;5024524;28;20561;-65
2023/07/05 01:46:26;;;;;;;14.27;5.37;;;17.30;36.90;;;;;;5027036;28;20454;-64
2023/07/05 01:49:23;;;;;;;15.13;6.20;;;17.20;37.40;;;;;;5028262;28;20532;-65
2023/07/05 01:51:57;;;;;;;8.50;5.73;;;17.20;37.90;;;;;;5023855;28;20465;-64
2023/07/05 01:54:30;;;;;;;9.40;5.50;;;17.20;37.00;;;;;;5024069;28;20475;-65
2023/07/05 01:57:02;;;;;;;9.23;5.80;;;17.20;36.70;;;;;;5025307;28;20533;-64
2023/07/05 01:59:34;;;;;;;9.23;5.50;;;17.20;36.50;;;;;;5020177;28;21430;-64
2023/07/05 02:02:03;;;;;;;10.00;4.97;;;17.30;36.60;;;;;;5027582;28;20482;-64
2023/07/05 02:04:35;;;;;;;8.90;4.37;;;17.20;36.80;;;;;;5027693;28;20484;-64
2023/07/05 02:07:02;;;;;;;9.53;4.80;;;17.20;36.70;;;;;;5027544;28;20565;-65
2023/07/05 02:09:29;;;;;;;7.77;5.17;;;17.30;36.70;;;;;;5030321;28;20982;-65
2023/07/05 02:11:56;;;;;;;9.30;4.90;;;17.30;37.00;;;;;;5031597;28;20467;-65
2023/07/05 02:14:23;;;;;;;10.13;5.63;;;17.30;37.50;;;;;;5031929;28;20524;-65
2023/07/05 02:16:50;;;;;;;13.37;5.87;;;17.30;37.70;;;;;;5031300;28;20459;-65
2023/07/05 02:19:17;;;;;;;8.90;5.20;;;17.30;38.00;;;;;;5028632;28;20588;-65
2023/07/05 02:21:45;;;;;;;8.53;5.40;;;17.30;37.90;;;;;;5026581;28;20470;-65
2023/07/05 02:24:12;;;;;;;12.00;5.77;;;17.30;38.30;;;;;;5024349;28;20550;-65
2023/07/05 02:26:38;;;;;;;10.83;5.13;;;17.30;38.30;;;;;;5031364;28;20939;-65
2023/07/05 02:29:05;;;;;;;15.50;6.30;;;17.30;38.40;;;;;;5031171;28;20462;-65
2023/07/05 02:31:32;;;;;;;7.90;4.63;;;17.30;38.60;;;;;;5028976;28;20501;-65
2023/07/05 02:33:58;;;;;;;9.57;5.30;;;17.40;38.20;;;;;;5029375;28;20489;-65
2023/07/05 02:36:25;;;;;;;14.33;5.47;;;17.40;38.70;;;;;;5027156;28;20481;-64
2023/07/05 02:38:53;;;;;;;11.00;5.93;;;17.40;39.50;;;;;;5029158;28;20981;-64
2023/07/05 02:41:21;;;;;;;9.07;4.70;;;17.30;39.50;;;;;;5029139;28;20463;-65
2023/07/05 02:43:47;;;;;;;10.50;6.07;;;17.30;39.10;;;;;;5026560;28;21026;-65
2023/07/05 02:46:14;;;;;;;12.30;6.80;;;17.30;39.40;;;;;;5026949;28;20463;-65
2023/07/05 02:48:41;;;;;;;10.50;6.27;;;17.20;40.10;;;;;;5025970;28;20471;-65
2023/07/05 02:51:07;;;;;;;11.63;5.37;;;17.20;39.90;;;;;;5030113;28;20978;-65
2023/07/05 02:53:34;;;;;;;11.63;5.83;;;17.20;39.80;;;;;;5027070;28;20562;-65
2023/07/05 02:56:02;;;;;;;11.93;5.40;;;17.20;39.60;;;;;;5030333;28;20481;-65
2023/07/05 02:58:29;;;;;;;9.37;5.63;;;17.10;39.70;;;;;;5030675;28;20826;-65
2023/07/05 03:00:55;;;;;;;8.83;5.90;;;17.20;39.80;;;;;;5034324;28;20465;-64
2023/07/05 03:03:22;;;;;;;24.80;7.10;;;17.20;39.80;;;;;;5029786;28;20987;-67
2023/07/05 03:05:56;;;;;;;10.10;5.30;;;17.30;39.60;;;;;;5026212;28;20463;-64
2023/07/05 03:08:25;;;;;;;9.80;5.00;;;17.30;39.30;;;;;;5025457;28;20955;-64
2023/07/05 03:10:53;;;;;;;10.17;6.10;;;17.30;39.20;;;;;;5028050;28;20489;-64
2023/07/05 03:13:21;;;;;;;12.90;5.73;;;17.40;39.10;;;;;;5029295;28;20494;-64
2023/07/05 03:15:48;;;;;;;11.00;6.07;;;17.40;39.40;;;;;;5031455;28;20466;-64
2023/07/05 03:18:14;;;;;;;14.93;6.53;;;17.40;39.30;;;;;;5033045;28;20469;-64
2023/07/05 03:20:41;;;;;;;10.07;5.67;;;17.40;39.40;;;;;;5031781;28;20496;-64
2023/07/05 03:23:08;;;;;;;11.90;6.37;;;17.40;39.90;;;;;;5031706;28;20553;-64
2023/07/05 03:25:34;;;;;;;11.70;5.60;;;17.40;39.90;;;;;;5024189;28;20462;-64
2023/07/05 03:28:03;;;;;;;12.63;6.33;;;17.30;40.00;;;;;;5034812;28;20454;-64
2023/07/05 03:30:31;;;;;;;10.13;5.40;;;17.30;40.10;;;;;;5027122;28;20483;-64
2023/07/05 03:32:58;;;;;;;15.50;6.20;;;17.40;40.30;;;;;;5039137;23;20462;-65
2023/07/05 03:35:24;;;;;;;9.43;5.00;;;17.40;40.00;;;;;;5047938;28;20474;-64
2023/07/05 03:37:51;;;;;;;13.23;6.10;;;17.40;39.70;;;;;;5045038;28;20469;-64
2023/07/05 03:40:18;;;;;;;14.67;5.57;;;17.40;40.20;;;;;;5048475;28;20465;-65
2023/07/05 03:42:44;;;;;;;13.60;6.70;;;17.50;40.10;;;;;;5048620;28;20469;-64
2023/07/05 03:45:11;;;;;;;12.20;5.83;;;17.50;40.20;;;;;;5050165;28;20465;-64
2023/07/05 03:47:39;;;;;;;13.00;5.90;;;17.50;40.10;;;;;;5048326;28;20973;-65
2023/07/05 03:50:07;;;;;;;10.93;5.17;;;17.60;40.40;;;;;;5041778;28;20486;-63
2023/07/05 03:52:34;;;;;;;11.73;6.20;;;17.60;40.30;;;;;;5042813;28;20468;-64
2023/07/05 03:55:00;;;;;;;12.60;7.33;;;17.60;40.10;;;;;;5047178;28;20482;-65
2023/07/05 03:57:28;;;;;;;10.07;6.73;;;17.60;39.90;;;;;;5047812;28;20458;-65
2023/07/05 03:59:54;;;;;;;12.70;7.03;;;17.60;40.00;;;;;;5049640;28;20519;-65
2023/07/05 04:02:21;;;;;;;10.13;7.27;;;17.60;40.00;;;;;;5050282;28;20469;-66
2023/07/05 04:04:49;;;;;;;13.30;6.33;;;17.60;40.20;;;;;;5048986;28;20477;-65
2023/07/05 04:07:16;;;;;;;13.93;7.10;;;17.60;40.20;;;;;;5048680;28;20466;-64
2023/07/05 04:09:43;;;;;;;10.53;5.37;;;17.60;39.90;;;;;;5046667;28;20461;-64
2023/07/05 04:12:10;;;;;;;7.90;3.50;;;17.60;40.10;;;;;;5044706;28;20482;-64
2023/07/05 04:14:37;;;;;;;9.37;4.07;;;17.60;40.20;;;;;;5050370;28;20477;-65
2023/07/05 04:17:04;;;;;;;8.93;4.27;;;17.70;40.30;;;;;;5051021;28;20473;-64
2023/07/05 04:19:31;;;;;;;5.57;2.23;;;17.60;40.60;;;;;;5048237;28;20457;-64
2023/07/05 04:21:59;;;;;;;5.80;1.47;;;17.60;40.10;;;;;;5046576;28;20460;-64
2023/07/05 04:24:25;;;;;;;5.13;1.60;;;17.60;39.30;;;;;;5047492;28;20488;-64
2023/07/05 04:26:52;;;;;;;5.07;1.50;;;17.60;39.00;;;;;;5047391;28;20557;-64
2023/07/05 04:29:19;;;;;;;6.53;2.00;;;17.50;38.90;;;;;;5048195;28;20461;-64
2023/07/05 04:31:46;;;;;;;4.87;1.60;;;17.60;38.40;;;;;;5050285;28;20881;-64
2023/07/05 04:34:12;;;;;;;8.37;2.23;;;17.60;38.50;;;;;;5047548;28;20482;-64
2023/07/05 04:36:39;;;;;;;6.13;2.27;;;17.60;38.70;;;;;;5046912;28;20458;-64
2023/07/05 04:39:07;;;;;;;5.57;2.30;;;17.60;38.90;;;;;;5049942;28;20468;-64
2023/07/05 04:41:34;;;;;;;7.10;2.90;;;17.60;38.90;;;;;;5050479;28;20460;-64
2023/07/05 04:44:00;;;;;;;6.90;2.63;;;17.60;39.00;;;;;;5045196;28;20485;-65
2023/07/05 04:46:27;;;;;;;7.80;2.50;;;17.60;39.10;;;;;;5049495;28;20477;-65
2023/07/05 04:48:54;;;;;;;7.03;2.43;;;17.60;39.40;;;;;;5050466;28;20826;-65
2023/07/05 04:51:20;;;;;;;8.50;3.10;;;17.70;39.70;;;;;;5046155;28;20478;-65
2023/07/05 04:53:47;;;;;;;5.63;2.10;;;17.80;39.50;;;;;;5049227;28;20477;-65
2023/07/05 04:56:16;;;;;;;8.20;3.10;;;17.70;39.50;;;;;;5050132;28;20746;-65
2023/07/05 04:58:44;;;;;;;6.67;3.53;;;17.80;39.70;;;;;;5050413;28;20462;-65
2023/07/05 05:01:13;;;;;;;7.47;2.30;;;17.80;39.50;;;;;;5047718;28;20569;-65
2023/07/05 05:03:40;;;;;;;9.77;3.30;;;17.80;39.60;;;;;;5049043;28;20482;-65
2023/07/05 05:06:06;;;;;;;8.97;3.00;;;17.80;39.60;;;;;;5045464;28;20938;-65
2023/07/05 05:08:33;;;;;;;7.70;2.90;;;17.90;40.00;;;;;;5048150;28;20458;-65
2023/07/05 05:11:01;;;;;;;8.60;2.63;;;17.90;39.40;;;;;;5049062;28;20481;-65
2023/07/05 05:13:31;;;;;;;7.63;3.33;;;18.00;39.30;;;;;;5047181;28;20884;-64
2023/07/05 05:15:58;;;;;;;6.00;2.73;;;18.00;39.40;;;;;;5047547;28;20460;-65
2023/07/05 05:18:27;;;;;;;6.47;2.50;;;18.10;39.30;;;;;;5046906;28;20463;-65
2023/07/05 05:20:54;;;;;;;7.70;2.80;;;18.10;39.20;;;;;;5046998;28;20476;-65
2023/07/05 05:23:21;;;;;;;6.90;2.57;;;18.20;38.70;;;;;;5045876;28;21013;-65
2023/07/05 05:25:49;;;;;;;8.67;2.50;;;18.50;39.40;;;;;;5048211;28;20457;-65
2023/07/05 05:28:16;;;;;;;7.70;2.00;;;20.30;36.40;;;;;;5045722;28;20474;-65
2023/07/05 05:30:45;;;;;;;6.20;2.20;;;22.60;28.50;;;;;;5047180;28;20481;-65
2023/07/05 05:33:13;;;;;;;6.13;2.30;;;24.50;21.30;;;;;;5043714;28;20489;-65
2023/07/05 05:35:39;;;;;;;5.20;1.90;;;26.20;17.00;;;;;;5048452;28;20887;-65
2023/07/05 05:38:06;;;;;;;6.87;2.10;;;27.60;13.50;;;;;;5048948;28;20472;-65
2023/07/05 05:40:34;;;;;;;5.27;2.30;;;27.20;11.30;;;;;;5045532;28;20482;-65
2023/07/05 05:43:01;;;;;;;5.90;2.43;;;26.80;12.00;;;;;;5047693;28;20492;-65
2023/07/05 05:45:27;;;;;;;5.80;2.03;;;27.60;11.50;;;;;;5049009;28;20469;-65
2023/07/05 05:47:55;;;;;;;5.20;2.20;;;28.00;10.00;;;;;;5044673;28;20537;-65
2023/07/05 05:50:24;;;;;;;8.87;2.60;;;29.20;8.40;;;;;;5047411;28;20475;-65
2023/07/05 05:52:51;;;;;;;6.40;2.53;;;30.90;5.60;;;;;;5046987;28;20549;-65
2023/07/05 05:55:17;;;;;;;6.20;2.40;;;32.20;2.10;;;;;;5048690;28;20466;-65
2023/07/05 05:57:44;;;;;;;5.10;2.30;;;33.20;1.00;;;;;;5048014;28;20461;-65
2023/07/05 06:00:12;;;;;;;5.70;2.90;;;33.70;1.00;;;;;;5048290;28;20458;-65
2023/07/05 06:02:39;;;;;;;6.83;2.57;;;33.80;1.00;;;;;;5047531;28;20474;-65
2023/07/05 06:05:09;;;;;;;7.30;3.30;;;32.60;1.00;;;;;;5045674;28;20485;-66
2023/07/05 06:07:36;;;;;;;5.80;2.23;;;31.00;1.20;;;;;;5044593;28;21068;-65
2023/07/05 06:10:03;;;;;;;6.10;2.57;;;29.80;3.00;;;;;;5048696;28;20458;-65
2023/07/05 06:12:30;;;;;;;7.43;3.13;;;28.70;5.10;;;;;;5045536;28;20483;-65
2023/07/05 06:14:57;;;;;;;6.27;2.67;;;28.50;7.30;;;;;;5041777;28;20482;-65
2023/07/05 06:17:24;;;;;;;5.97;2.47;;;29.70;5.00;;;;;;5047512;28;20469;-65
2023/07/05 06:19:50;;;;;;;5.83;3.13;;;31.50;2.30;;;;;;5048387;28;20465;-65
2023/07/05 06:22:18;;;;;;;5.60;2.37;;;33.00;1.00;;;;;;5045213;28;20838;-65
2023/07/05 06:24:45;;;;;;;4.97;2.70;;;34.50;1.00;;;;;;5047950;28;20485;-65
2023/07/05 06:27:12;;;;;;;5.33;2.40;;;35.70;1.00;;;;;;5045789;28;21009;-65
2023/07/05 06:29:39;;;;;;;4.73;1.90;;;36.60;1.00;;;;;;5045139;28;20463;-65
2023/07/05 06:32:06;;;;;;;4.70;2.27;;;36.70;1.00;;;;;;5047702;28;20485;-66
2023/07/05 06:34:33;;;;;;;4.97;2.27;;;36.30;1.00;;;;;;5046712;28;20482;-66
2023/07/05 06:37:00;;;;;;;5.67;2.47;;;36.60;1.00;;;;;;5048516;28;20950;-66
2023/07/05 06:39:28;;;;;;;5.43;2.60;;;37.60;1.00;;;;;;5047651;28;20481;-65
2023/07/05 06:41:54;;;;;;;5.60;2.40;;;38.50;1.00;;;;;;5047896;28;20458;-65
2023/07/05 06:44:21;;;;;;;5.67;2.10;;;38.80;1.00;;;;;;5047167;28;20485;-66
2023/07/05 06:46:48;;;;;;;6.23;1.97;;;39.50;1.00;;;;;;5049515;28;20458;-66
2023/07/05 06:49:15;;;;;;;4.97;1.80;;;40.40;1.00;;;;;;5047310;28;21074;-66
2023/07/05 06:51:41;;;;;;;6.40;1.90;;;41.40;1.00;;;;;;5047101;28;20488;-66
2023/07/05 06:54:08;;;;;;;6.00;2.43;;;42.40;1.00;;;;;;5046684;28;20482;-66
2023/07/05 06:56:37;;;;;;;4.27;2.20;;;42.80;1.00;;;;;;5046895;28;20469;-66
2023/07/05 06:59:03;;;;;;;5.00;2.03;;;43.30;1.00;;;;;;5046009;28;20799;-66
2023/07/05 07:01:30;;;;;;;5.30;1.70;;;43.70;1.00;;;;;;5046268;28;20458;-66
2023/07/05 07:03:57;;;;;;;4.93;1.93;;;44.50;1.00;;;;;;5047237;28;20993;-67
2023/07/05 07:06:23;;;;;;;4.30;1.83;;;45.10;1.00;;;;;;5047710;28;20461;-66
2023/07/05 07:08:50;;;;;;;4.60;1.67;;;45.30;1.00;;;;;;5047608;28;20878;-66
2023/07/05 07:11:17;;;;;;;4.50;2.20;;;44.80;1.00;;;;;;5046870;28;20545;-66
2023/07/05 07:13:45;;;;;;;6.13;2.47;;;44.90;1.00;;;;;;5046992;28;20482;-66
2023/07/05 07:16:13;;;;;;;3.90;1.70;;;45.20;1.00;;;;;;5045004;28;20470;-66
2023/07/05 07:18:44;;;;;;;4.93;2.13;;;45.60;1.00;;;;;;5045241;28;20966;-66
2023/07/05 07:21:11;;;;;;;4.30;2.07;;;45.70;1.00;;;;;;5048090;28;20496;-66
2023/07/05 07:23:38;;;;;;;4.40;1.80;;;46.00;1.00;;;;;;5046525;28;20848;-67
2023/07/05 07:26:07;;;;;;;5.50;1.90;;;46.50;1.00;;;;;;5047712;28;20484;-66
2023/07/05 07:28:34;;;;;;;5.23;2.40;;;47.00;1.00;;;;;;5044538;28;20463;-66
2023/07/05 07:31:09;;;;;;;4.03;2.00;;;47.50;1.00;;;;;;5046932;28;20492;-66
2023/07/05 07:33:36;;;;;;;5.07;1.93;;;47.80;1.00;;;;;;5046323;28;20489;-67
2023/07/05 07:36:08;;;;;;;5.20;2.30;;;47.80;1.00;;;;;;5047830;28;20458;-66
2023/07/05 07:38:35;;;;;;;4.37;1.90;;;47.90;1.00;;;;;;5044530;28;20495;-66
2023/07/05 07:41:02;;;;;;;5.00;2.50;;;48.00;1.00;;;;;;5045760;28;20885;-66
2023/07/05 07:43:28;;;;;;;5.83;1.90;;;48.20;1.00;;;;;;5047427;28;20477;-66
2023/07/05 07:45:55;;;;;;;4.23;2.20;;;48.50;1.00;;;;;;5047288;28;20463;-66
2023/07/05 07:48:23;;;;;;;4.70;2.07;;;48.40;1.00;;;;;;5045100;28;20462;-66
2023/07/05 07:50:50;;;;;;;4.10;2.20;;;47.70;1.00;;;;;;5044770;28;20830;-67
2023/07/05 07:53:17;;;;;;;4.80;2.33;;;46.00;1.00;;;;;;5044644;28;20482;-66
2023/07/05 07:55:43;;;;;;;6.23;2.53;;;44.60;1.00;;;;;;5044644;28;20970;-66
2023/07/05 07:58:10;;;;;;;5.30;1.90;;;43.80;1.00;;;;;;5043718;28;20470;-66
2023/07/05 08:00:37;;;;;;;5.17;1.93;;;44.70;1.00;;;;;;5046433;28;20470;-66
2023/07/05 08:03:03;;;;;;;6.23;1.90;;;44.00;1.00;;;;;;5045039;28;20482;-66
2023/07/05 08:05:32;;;;;;;4.60;2.33;;;43.50;1.00;;;;;;5050374;28;20474;-66
2023/07/05 08:07:59;;;;;;;4.60;1.80;;;43.00;1.00;;;;;;5048502;28;20460;-66
2023/07/05 08:10:28;;;;;;;5.10;2.30;;;42.40;1.00;;;;;;5049952;28;20465;-66
2023/07/05 08:12:56;;;;;;;5.40;2.23;;;41.70;1.00;;;;;;5050512;28;20883;-66
2023/07/05 08:15:23;;;;;;;5.00;2.40;;;41.70;1.00;;;;;;5050080;28;20465;-66
2023/07/05 08:17:50;;;;;;;4.23;1.87;;;42.50;1.00;;;;;;5049120;28;20462;-66
2023/07/05 08:20:17;;;;;;;6.70;2.50;;;42.30;1.00;;;;;;5050655;28;20453;-66
2023/07/05 08:22:45;;;;;;;4.50;2.03;;;40.80;1.00;;;;;;5046241;28;20832;-67
2023/07/05 08:25:15;;;;;;;7.70;2.03;;;38.90;1.00;;;;;;5051227;28;20446;-66
2023/07/05 08:27:41;;;;;;;5.30;2.20;;;37.20;1.00;;;;;;5048710;28;20966;-66
2023/07/05 08:30:09;;;;;;;4.63;2.57;;;36.10;1.00;;;;;;5050598;28;20458;-66
2023/07/05 08:32:37;;;;;;;5.40;2.00;;;37.60;1.00;;;;;;5046928;28;20474;-65
2023/07/05 08:35:05;;;;;;;6.10;2.10;;;39.30;1.00;;;;;;5047716;28;20577;-65
2023/07/05 08:37:31;;;;;;;5.57;2.27;;;39.00;1.00;;;;;;5050292;28;20458;-66
2023/07/05 08:39:59;;;;;;;5.30;2.20;;;38.00;1.00;;;;;;5050812;28;20465;-66
2023/07/05 08:42:42;;;;;;;4.40;1.77;;;37.50;1.00;;;;;;5050468;28;20458;-66
2023/07/05 08:45:20;;;;;;;4.67;2.00;;;36.30;1.00;;;;;;5045927;28;20839;-66
2023/07/05 08:47:50;;;;;;;5.27;2.17;;;35.90;1.00;;;;;;5049067;28;20485;-66
2023/07/05 08:50:24;;;;;;;5.53;2.33;;;34.90;1.00;;;;;;5049430;28;20465;-66
2023/07/05 08:52:56;;;;;;;5.87;2.60;;;34.20;1.00;;;;;;5049702;28;20486;-66
2023/07/05 08:55:29;;;;;;;5.50;1.90;;;33.60;1.00;;;;;;5048213;28;20457;-66
2023/07/05 08:57:58;;;;;;;5.87;2.47;;;32.90;1.00;;;;;;5045588;28;20465;-66
2023/07/05 09:00:27;;;;;;;5.20;2.20;;;32.30;1.00;;;;;;5048459;28;20466;-66
2023/07/05 09:02:54;;;;;;;6.23;2.30;;;32.70;1.00;;;;;;5049274;28;20494;-66
2023/07/05 09:05:30;;;;;;;6.30;2.40;;;32.70;1.00;;;;;;5047724;28;20863;-66
2023/07/05 09:08:07;;;;;;;5.83;2.20;;;32.60;1.00;;;;;;5047589;28;20466;-66
2023/07/05 09:10:42;;;;;;;4.50;1.80;;;33.90;1.00;;;;;;5046996;28;20887;-66
2023/07/05 09:15:42;;;;;;;5.63;1.80;;;35.50;1.00;;;;;;5046496;28;20469;-63
2023/07/05 09:18:18;;;;;;;4.93;2.00;;;35.70;1.00;;;;;;5052861;28;20454;-64
2023/07/05 09:20:57;;;;;;;4.37;1.70;;;35.40;1.00;;;;;;5051530;28;20461;-65
2023/07/05 09:23:30;;;;;;;4.90;1.77;;;34.40;1.00;;;;;;5044622;28;20485;-64
2023/07/05 09:26:03;;;;;;;5.93;2.50;;;33.10;1.00;;;;;;5030419;28;20482;-64
2023/07/05 09:28:36;;;;;;;4.50;1.80;;;31.80;1.00;;;;;;5031333;28;20467;-64
2023/07/05 09:31:11;;;;;;;6.70;3.00;;;30.70;1.00;;;;;;5026833;28;20877;-64
2023/07/05 09:33:42;;;;;;;6.57;2.60;;;29.60;1.00;;;;;;5031650;28;21014;-64
2023/07/05 09:36:14;;;;;;;5.40;2.27;;;28.80;1.00;;;;;;5030631;28;20952;-63
2023/07/05 09:38:47;;;;;;;4.70;1.83;;;28.00;1.80;;;;;;5030819;28;20842;-63
2023/07/05 09:41:20;;;;;;;6.13;2.60;;;27.40;2.50;;;;;;5030878;28;20463;-63
2023/07/05 09:43:47;;;;;;;8.63;3.13;;;27.00;3.80;;;;;;5030161;28;20474;-63
2023/07/05 09:46:20;;;;;;;5.97;2.00;;;26.80;4.40;;;;;;5028603;28;20454;-63
2023/07/05 09:48:47;;;;;;;7.30;2.17;;;27.10;5.40;;;;;;5030112;28;20454;-64
2023/07/05 09:51:16;;;;;;;4.40;1.30;;;27.30;4.80;;;;;;5027368;28;20495;-63
2023/07/05 09:53:47;;;;;;;7.20;1.53;;;27.30;4.80;;;;;;5029721;28;20920;-64
2023/07/05 09:56:18;;;;;;;5.47;0.90;;;27.20;5.00;;;;;;5028640;28;20463;-65
2023/07/05 09:58:45;;;;;;;5.00;0.80;;;27.10;5.20;;;;;;5027696;28;20462;-64
2023/07/05 10:01:14;;;;;;;3.87;1.03;;;27.00;5.20;;;;;;5026198;28;20474;-64
2023/07/05 10:03:52;;;;;;;3.80;0.80;;;26.90;4.80;;;;;;5028146;28;20478;-64
2023/07/05 10:06:20;;;;;;;5.27;0.90;;;26.80;6.00;;;;;;5030543;28;20541;-64
2023/07/05 10:08:51;;;;;;;4.10;0.80;;;26.90;6.20;;;;;;5031541;28;20528;-64
2023/07/05 10:11:25;;;;;;;3.97;0.83;;;26.80;5.30;;;;;;5029668;28;20455;-64
2023/07/05 10:14:03;;;;;;;10.57;2.00;;;26.60;5.80;;;;;;5029055;28;20855;-64
2023/07/05 10:16:46;;;;;;;7.87;1.87;;;26.20;7.50;;;;;;5026859;28;20493;-64
2023/07/05 10:19:23;;;;;;;6.00;1.90;;;25.60;9.50;;;;;;5030462;28;20501;-64
2023/07/05 10:21:54;;;;;;;4.83;1.30;;;25.10;10.80;;;;;;5029983;28;20497;-64
2023/07/05 10:24:21;;;;;;;4.70;1.10;;;24.70;12.60;;;;;;5028152;28;20483;-64
2023/07/05 10:26:51;;;;;;;5.57;1.20;;;24.60;14.40;;;;;;5030046;28;20458;-64
2023/07/05 10:29:22;;;;;;;5.73;1.50;;;24.70;16.40;;;;;;5024578;28;20462;-64
2023/07/05 10:31:54;;;;;;;7.40;1.57;;;24.70;17.30;;;;;;5031017;28;20478;-64
2023/07/05 10:34:24;;;;;;;4.03;0.90;;;24.60;17.60;;;;;;5027702;28;20581;-64
2023/07/05 10:36:51;;;;;;;4.77;1.20;;;24.40;17.80;;;;;;5029440;28;20489;-64
2023/07/05 10:39:22;;;;;;;4.23;1.20;;;24.30;18.50;;;;;;5030469;28;20471;-64
2023/07/05 10:41:56;;;;;;;4.90;1.27;;;24.20;18.70;;;;;;5027651;28;20458;-64
2023/07/05 10:44:27;;;;;;;3.70;0.80;;;24.10;18.50;;;;;;5026991;28;20485;-64
2023/07/05 10:46:56;;;;;;;4.93;1.30;;;24.10;17.50;;;;;;5029737;28;20458;-64
2023/07/05 10:49:24;;;;;;;4.80;1.33;;;24.10;19.40;;;;;;5028754;28;20544;-64
2023/07/05 10:51:54;;;;;;;4.37;1.00;;;24.10;19.10;;;;;;5029226;28;20474;-64
2023/07/05 10:54:28;;;;;;;4.40;1.00;;;24.20;18.20;;;;;;5026988;28;20486;-64
2023/07/05 10:56:58;;;;;;;4.00;0.73;;;24.40;17.20;;;;;;5030017;28;20451;-64
2023/07/05 10:59:31;;;;;;;4.07;1.20;;;24.50;15.50;;;;;;5023148;28;20459;-64
2023/07/05 11:02:02;;;;;;;5.10;1.20;;;24.80;14.50;;;;;;5026220;28;20480;-64
2023/07/05 11:04:32;;;;;;;4.83;1.10;;;25.00;14.00;;;;;;5030140;28;21041;-64
2023/07/05 11:07:07;;;;;;;4.00;1.13;;;25.20;13.40;;;;;;5027558;28;20978;-64
2023/07/05 11:09:35;;;;;;;4.70;1.30;;;25.30;12.80;;;;;;5025376;28;20481;-64
2023/07/05 11:12:09;;;;;;;4.30;0.97;;;25.20;12.10;;;;;;5029020;28;20529;-64
2023/07/05 11:14:37;;;;;;;4.53;1.00;;;25.00;13.30;;;;;;5029863;28;20482;-64
2023/07/05 11:17:06;;;;;;;3.60;0.83;;;24.90;13.90;;;;;;5028176;28;20466;-65
2023/07/05 11:19:33;;;;;;;3.90;1.00;;;24.80;13.90;;;;;;5030227;28;20554;-65
2023/07/05 11:22:00;;;;;;;5.27;0.93;;;24.60;13.30;;;;;;5026105;28;20451;-65
2023/07/05 11:24:44;;;;;;;3.80;0.90;;;24.50;12.40;;;;;;5026577;28;20470;-65
2023/07/05 11:27:51;;;;;;;4.00;0.80;;;24.40;11.90;;;;;;5025368;28;20509;-65
2023/07/05 11:30:43;;;;;;;4.30;1.17;;;24.50;12.20;;;;;;5027603;28;20462;-65
2023/07/05 11:33:20;;;;;;;3.90;1.20;;;24.70;12.80;;;;;;5020374;28;20565;-65
2023/07/05 11:35:48;;;;;;;3.80;0.90;;;24.80;11.90;;;;;;5028391;28;20465;-65
2023/07/05 11:39:06;;;;;;;4.30;1.43;;;24.80;11.50;;;;;;5028572;28;20465;-65
2023/07/05 11:41:37;;;;;;;4.67;1.27;;;24.80;9.20;;;;;;4969175;28;20457;-65
2023/07/05 11:44:22;;;;;;;4.40;1.40;;;24.70;10.20;;;;;;4970640;28;20905;-65
2023/07/05 11:46:49;;;;;;;5.00;1.53;;;24.70;10.80;;;;;;5013934;28;20486;-65
2023/07/05 11:49:27;;;;;;;5.20;1.60;;;24.70;10.30;;;;;;5031142;28;20462;-66
2023/07/05 11:51:57;;;;;;;4.63;1.30;;;24.60;9.30;;;;;;5032398;28;20467;-65
2023/07/05 11:54:31;;;;;;;5.10;1.50;;;24.60;10.60;;;;;;5027860;28;20516;-65
2023/07/05 11:57:02;;;;;;;4.93;1.53;;;24.70;11.70;;;;;;5031381;28;20466;-65
2023/07/05 11:59:35;;;;;;;4.43;1.60;;;24.70;10.10;;;;;;5032235;28;20510;-67
2023/07/05 12:02:11;;;;;;;4.10;1.23;;;24.80;8.60;;;;;;5029515;28;20502;-65
2023/07/05 12:04:40;;;;;;;4.37;1.67;;;24.80;7.80;;;;;;5029409;28;21002;-64
2023/07/05 12:07:09;;;;;;;4.30;1.30;;;24.80;8.00;;;;;;5031481;28;20950;-66
2023/07/05 12:09:37;;;;;;;5.23;2.03;;;24.80;7.00;;;;;;5030274;28;20459;-66
2023/07/05 12:12:05;;;;;;;6.03;1.63;;;24.80;4.90;;;;;;5030066;28;20462;-65
2023/07/05 12:14:33;;;;;;;4.03;1.30;;;24.80;5.10;;;;;;5030819;28;20570;-65
2023/07/05 12:17:01;;;;;;;5.07;1.60;;;24.80;8.50;;;;;;5028421;28;20466;-69
2023/07/05 12:19:30;;;;;;;5.83;1.47;;;24.80;6.40;;;;;;5028872;28;20888;-66
2023/07/05 12:22:02;;;;;;;4.37;1.27;;;24.80;6.80;;;;;;5030335;28;20542;-66
2023/07/05 12:24:35;;;;;;;5.63;1.30;;;24.80;7.50;;;;;;5029953;28;20889;-65
2023/07/05 12:27:03;;;;;;;6.23;2.10;;;24.90;7.50;;;;;;5027290;28;20510;-66
2023/07/05 12:29:29;;;;;;;5.10;1.67;;;24.90;8.70;;;;;;5026425;28;20546;-65
2023/07/05 12:32:07;;;;;;;4.53;1.40;;;25.00;8.10;;;;;;5029611;28;20486;-66
2023/07/05 12:34:34;;;;;;;4.40;1.60;;;25.00;7.80;;;;;;5029270;28;20569;-66
2023/07/05 12:37:01;;;;;;;5.70;1.80;;;25.00;5.70;;;;;;5030903;28;20521;-65
2023/07/05 12:39:28;;;;;;;4.63;1.93;;;25.10;6.00;;;;;;5031103;28;20587;-66
2023/07/05 12:42:02;;;;;;;4.80;1.60;;;25.20;4.90;;;;;;5030770;28;20487;-67
2023/07/05 12:44:30;;;;;;;5.40;1.80;;;25.10;3.90;;;;;;5030457;28;20475;-67
2023/07/05 12:47:11;;;;;;;5.30;1.77;;;25.20;4.30;;;;;;5030208;28;20572;-66
2023/07/05 12:49:38;;;;;;;5.63;2.10;;;25.30;3.80;;;;;;5029420;28;20496;-65
2023/07/05 12:52:05;;;;;;;5.83;1.87;;;25.50;3.30;;;;;;5029436;28;20474;-66
2023/07/05 12:54:31;;;;;;;7.60;2.27;;;25.70;6.50;;;;;;5029150;28;21086;-66
2023/07/05 12:56:59;;;;;;;5.80;1.93;;;25.80;5.90;;;;;;5028007;28;20459;-66
2023/07/05 12:59:31;;;;;;;4.87;1.97;;;25.90;3.90;;;;;;5030884;28;20491;-65
2023/07/05 13:02:02;;;;;;;4.63;1.60;;;26.00;2.60;;;;;;5028597;28;20468;-66